createdAt,value
2018-12-29T00:02:33.663Z,6.30
2018-12-29T00:16:52.746Z,6.20
2018-12-29T00:23:23.818Z,6.20
2018-12-29T00:29:32.148Z,6.30
2018-12-29T00:32:20.191Z,6.30
2018-12-29T00:35:03.370Z,6.40
2018-12-29T00:37:46.698Z,6.50
2018-12-29T00:40:35.405Z,6.40
2018-12-29T00:43:22.210Z,6.40
2018-12-29T00:46:08.100Z,6.40
2018-12-29T00:48:51.185Z,6.30
2018-12-29T00:51:41.480Z,6.30
2018-12-29T00:54:38.980Z,6.20
2018-12-29T00:57:20.835Z,6.30
2018-12-29T01:00:10.391Z,6.30
2018-12-29T01:02:56.957Z,6.20
2018-12-29T01:05:41.314Z,6.20
2018-12-29T01:08:29.003Z,6.20
2018-12-29T01:11:16.449Z,6.20
2018-12-29T01:14:13.377Z,6.20
2018-12-29T01:17:00.236Z,6.30
2018-12-29T01:19:51.451Z,6.30
2018-12-29T01:22:36.880Z,6.30
2018-12-29T01:25:36.906Z,6.30
2018-12-29T01:28:22.399Z,6.30
2018-12-29T01:31:09.457Z,6.50
2018-12-29T01:33:56.107Z,6.50
2018-12-29T01:36:48.463Z,6.50
2018-12-29T01:39:33.461Z,6.50
2018-12-29T01:42:19.479Z,6.70
2018-12-29T01:45:07.392Z,6.70
2018-12-29T01:47:55.471Z,6.70
2018-12-29T01:50:37.898Z,6.60
2018-12-29T01:53:24.453Z,6.60
2018-12-29T01:56:17.059Z,6.50
2018-12-29T01:59:08.431Z,6.50
2018-12-29T02:02:03.269Z,6.50
2018-12-29T02:04:47.930Z,6.50
2018-12-29T02:07:42.483Z,6.40
2018-12-29T02:10:31.484Z,6.40
2018-12-29T02:13:18.240Z,6.50
2018-12-29T02:16:08.083Z,6.60
2018-12-29T02:18:51.818Z,6.50
2018-12-29T02:21:39.246Z,6.40
2018-12-29T02:24:25.159Z,6.40
2018-12-29T02:27:08.496Z,6.40
2018-12-29T02:29:55.663Z,6.40
2018-12-29T02:32:39.117Z,6.40
2018-12-29T02:35:20.693Z,6.50
2018-12-29T02:38:09.367Z,6.40
2018-12-29T02:40:54.376Z,6.40
2018-12-29T02:43:38.469Z,6.40
2018-12-29T02:46:28.258Z,6.40
2018-12-29T02:49:13.888Z,6.30
2018-12-29T02:51:57.322Z,6.30
2018-12-29T02:54:41.374Z,6.40
2018-12-29T02:57:26.029Z,6.40
2018-12-29T03:00:16.832Z,6.40
2018-12-29T03:03:18.037Z,6.40
2018-12-29T03:06:11.488Z,6.40
2018-12-29T03:08:57.503Z,6.30
2018-12-29T03:11:44.355Z,6.40
2018-12-29T03:14:33.188Z,6.60
2018-12-29T03:17:18.854Z,6.50
2018-12-29T03:20:06.900Z,6.40
2018-12-29T03:22:49.453Z,6.40
2018-12-29T03:25:37.138Z,6.40
2018-12-29T03:28:24.933Z,6.50
2018-12-29T03:31:09.526Z,6.40
2018-12-29T03:34:02.508Z,6.30
2018-12-29T03:36:48.585Z,6.30
2018-12-29T03:39:35.512Z,6.30
2018-12-29T03:42:17.439Z,6.30
2018-12-29T03:45:01.643Z,6.40
2018-12-29T03:47:50.142Z,6.60
2018-12-29T03:50:33.834Z,6.60
2018-12-29T03:53:17.577Z,6.70
2018-12-29T03:56:01.312Z,6.80
2018-12-29T03:58:43.209Z,6.70
2018-12-29T04:01:30.522Z,6.60
2018-12-29T04:04:17.495Z,6.60
2018-12-29T04:07:03.029Z,6.60
2018-12-29T04:09:53.534Z,6.60
2018-12-29T04:12:45.300Z,6.70
2018-12-29T04:15:57.818Z,6.60
2018-12-29T04:18:43.505Z,6.60
2018-12-29T04:21:31.540Z,6.60
2018-12-29T04:24:16.521Z,6.60
2018-12-29T04:27:02.968Z,6.70
2018-12-29T04:29:49.587Z,6.70
2018-12-29T04:32:37.249Z,6.80
2018-12-29T04:35:26.594Z,7.00
2018-12-29T04:38:15.437Z,7.00
2018-12-29T04:41:08.437Z,7.10
2018-12-29T04:43:52.175Z,7.20
2018-12-29T04:46:41.600Z,7.10
2018-12-29T04:49:36.606Z,7.00
2018-12-29T04:52:18.407Z,7.00
2018-12-29T04:55:02.607Z,7.20
2018-12-29T04:57:55.566Z,7.40
2018-12-29T05:00:40.612Z,7.20
2018-12-29T05:03:29.649Z,7.20
2018-12-29T05:06:17.615Z,7.10
2018-12-29T05:09:07.611Z,7.00
2018-12-29T05:11:54.429Z,7.00
2018-12-29T05:14:38.423Z,7.00
2018-12-29T05:17:20.017Z,7.00
2018-12-29T05:20:06.523Z,6.90
2018-12-29T05:22:53.337Z,7.00
2018-12-29T05:25:42.341Z,7.00
2018-12-29T05:28:24.540Z,6.90
2018-12-29T05:31:07.054Z,7.00
2018-12-29T05:33:54.591Z,7.10
2018-12-29T05:36:57.638Z,7.10
2018-12-29T05:39:51.144Z,6.90
2018-12-29T05:42:50.195Z,6.80
2018-12-29T05:45:38.235Z,6.80
2018-12-29T05:48:22.606Z,6.80
2018-12-29T05:51:06.618Z,6.90
2018-12-29T05:53:48.578Z,6.90
2018-12-29T05:56:44.680Z,6.80
2018-12-29T05:59:28.348Z,6.80
2018-12-29T06:02:11.117Z,6.90
2018-12-29T06:04:53.986Z,6.90
2018-12-29T06:07:43.204Z,7.00
2018-12-29T06:10:28.618Z,7.00
2018-12-29T06:13:17.669Z,7.10
2018-12-29T06:16:11.035Z,7.10
2018-12-29T06:18:56.641Z,7.00
2018-12-29T06:21:49.599Z,7.10
2018-12-29T06:24:46.488Z,7.00
2018-12-29T06:27:31.478Z,7.00
2018-12-29T06:30:18.285Z,7.00
2018-12-29T06:33:05.679Z,7.10
2018-12-29T06:35:52.639Z,7.20
2018-12-29T06:38:42.452Z,7.00
2018-12-29T06:41:30.488Z,7.00
2018-12-29T06:44:15.149Z,7.10
2018-12-29T06:47:03.493Z,7.10
2018-12-29T06:49:47.693Z,7.00
2018-12-29T06:52:34.354Z,7.10
2018-12-29T06:55:20.267Z,7.10
2018-12-29T06:58:11.047Z,7.20
2018-12-29T07:01:01.508Z,7.20
2018-12-29T07:03:53.503Z,7.30
2018-12-29T07:06:40.397Z,7.20
2018-12-29T07:09:26.707Z,7.20
2018-12-29T07:12:18.271Z,7.20
2018-12-29T07:15:02.628Z,7.20
2018-12-29T07:18:04.692Z,7.10
2018-12-29T07:20:56.477Z,7.20
2018-12-29T07:23:45.894Z,7.10
2018-12-29T07:26:46.127Z,7.20
2018-12-29T07:29:38.201Z,7.20
2018-12-29T07:32:35.103Z,7.10
2018-12-29T07:35:19.152Z,7.20
2018-12-29T07:38:04.425Z,7.20
2018-12-29T07:40:48.694Z,7.20
2018-12-29T07:43:36.514Z,7.20
2018-12-29T07:46:19.638Z,7.30
2018-12-29T07:49:13.690Z,7.30
2018-12-29T07:52:02.738Z,7.30
2018-12-29T07:54:55.128Z,7.30
2018-12-29T07:57:37.742Z,7.40
2018-12-29T08:00:21.699Z,7.60
2018-12-29T08:03:06.752Z,7.50
2018-12-29T08:05:54.442Z,7.50
2018-12-29T08:08:43.345Z,7.50
2018-12-29T08:11:36.301Z,7.40
2018-12-29T08:14:20.944Z,7.40
2018-12-29T08:17:12.075Z,7.50
2018-12-29T08:19:59.507Z,7.40
2018-12-29T08:22:45.988Z,7.50
2018-12-29T08:25:32.245Z,7.60
2018-12-29T08:28:19.722Z,7.50
2018-12-29T08:31:05.795Z,7.60
2018-12-29T08:33:49.724Z,7.50
2018-12-29T08:36:32.775Z,7.40
2018-12-29T08:39:25.773Z,7.40
2018-12-29T08:42:14.606Z,7.40
2018-12-29T08:44:56.501Z,7.50
2018-12-29T08:47:46.779Z,7.40
2018-12-29T08:50:38.465Z,7.30
2018-12-29T08:53:26.983Z,7.20
2018-12-29T08:56:18.749Z,7.20
2018-12-29T08:59:10.795Z,7.20
2018-12-29T09:02:00.460Z,7.40
2018-12-29T09:04:53.794Z,7.40
2018-12-29T09:07:36.777Z,7.30
2018-12-29T09:10:31.763Z,7.30
2018-12-29T09:13:17.180Z,7.40
2018-12-29T09:15:58.754Z,7.30
2018-12-29T09:18:53.801Z,7.30
2018-12-29T09:21:49.646Z,7.30
2018-12-29T09:24:32.153Z,7.20
2018-12-29T09:27:13.701Z,7.30
2018-12-29T09:30:05.209Z,7.30
2018-12-29T09:32:52.557Z,7.30
2018-12-29T09:35:39.819Z,7.30
2018-12-29T09:38:26.213Z,7.20
2018-12-29T09:41:10.569Z,7.20
2018-12-29T09:43:55.542Z,7.10
2018-12-29T09:46:42.777Z,7.10
2018-12-29T09:49:25.736Z,7.10
2018-12-29T09:52:27.851Z,7.10
2018-12-29T09:55:18.146Z,7.20
2018-12-29T09:58:06.788Z,7.20
2018-12-29T10:00:51.115Z,7.20
2018-12-29T10:03:32.790Z,7.20
2018-12-29T10:06:18.325Z,7.10
2018-12-29T10:09:05.748Z,7.20
2018-12-29T10:11:49.489Z,7.20
2018-12-29T10:14:44.240Z,7.20
2018-12-29T10:17:27.146Z,7.10
2018-12-29T10:20:14.837Z,7.10
2018-12-29T10:22:59.860Z,7.10
2018-12-29T10:25:44.813Z,7.20
2018-12-29T10:28:29.740Z,7.20
2018-12-29T10:31:13.813Z,7.20
2018-12-29T10:33:59.030Z,7.20
2018-12-29T10:36:44.604Z,7.20
2018-12-29T10:39:32.639Z,7.20
2018-12-29T10:42:16.733Z,7.20
2018-12-29T10:45:00.176Z,7.20
2018-12-29T10:47:52.151Z,7.30
2018-12-29T10:50:36.110Z,7.40
2018-12-29T10:53:18.831Z,7.40
2018-12-29T10:56:07.847Z,7.40
2018-12-29T10:59:07.739Z,7.50
2018-12-29T11:02:05.568Z,7.50
2018-12-29T11:04:50.835Z,7.50
2018-12-29T11:07:38.616Z,7.30
2018-12-29T11:10:25.742Z,7.20
2018-12-29T11:13:13.777Z,7.20
2018-12-29T11:16:00.032Z,7.30
2018-12-29T11:19:10.858Z,7.40
2018-12-29T11:21:58.479Z,7.40
2018-12-29T11:24:45.850Z,7.30
2018-12-29T11:27:36.851Z,7.40
2018-12-29T11:30:28.304Z,7.40
2018-12-29T11:33:12.806Z,7.40
2018-12-29T11:35:58.919Z,7.40
2018-12-29T11:38:45.112Z,7.50
2018-12-29T11:41:35.332Z,7.40
2018-12-29T11:44:33.920Z,7.30
2018-12-29T11:47:22.825Z,7.20
2018-12-29T11:50:14.508Z,7.20
2018-12-29T11:53:18.870Z,7.40
2018-12-29T11:56:08.755Z,7.60
2018-12-29T11:59:10.574Z,7.60
2018-12-29T12:01:55.849Z,7.70
2018-12-29T12:04:39.594Z,7.60
2018-12-29T12:07:22.726Z,7.40
2018-12-29T12:10:07.681Z,7.40
2018-12-29T12:13:07.929Z,7.30
2018-12-29T12:16:10.940Z,7.30
2018-12-29T12:19:07.896Z,7.30
2018-12-29T12:22:02.589Z,7.30
2018-12-29T12:24:49.709Z,7.20
2018-12-29T12:28:00.940Z,7.30
2018-12-29T12:30:47.950Z,7.40
2018-12-29T12:33:37.900Z,7.50
2018-12-29T12:36:29.910Z,7.50
2018-12-29T12:39:31.940Z,7.50
2018-12-29T12:42:23.723Z,7.40
2018-12-29T12:45:08.650Z,7.50
2018-12-29T12:48:15.918Z,7.40
2018-12-29T12:51:22.966Z,7.40
2018-12-29T12:54:33.959Z,7.40
2018-12-29T12:57:42.023Z,7.40
2018-12-29T13:00:47.919Z,7.40
2018-12-29T13:03:51.493Z,7.30
2018-12-29T13:06:52.926Z,7.30
2018-12-29T13:10:00.780Z,7.30
2018-12-29T13:13:11.553Z,7.30
2018-12-29T13:16:05.435Z,7.30
2018-12-29T13:19:28.666Z,7.20
2018-12-29T13:22:16.938Z,7.30
2018-12-29T13:25:15.983Z,7.30
2018-12-29T13:28:01.986Z,7.40
2018-12-29T13:30:54.997Z,7.50
2018-12-29T13:33:37.557Z,7.60
2018-12-29T13:36:27.948Z,7.60
2018-12-29T13:39:37.993Z,7.50
2018-12-29T13:42:51.948Z,7.50
2018-12-29T13:45:52.388Z,7.40
2018-12-29T13:48:43.998Z,7.40
2018-12-29T13:51:58.957Z,7.40
2018-12-29T13:54:50.311Z,7.30
2018-12-29T13:57:59.588Z,7.30
2018-12-29T14:00:45.751Z,7.30
2018-12-29T14:03:40.012Z,7.20
2018-12-29T14:06:31.689Z,7.20
2018-12-29T14:09:38.013Z,7.20
2018-12-29T14:12:40.904Z,7.30
2018-12-29T14:15:46.764Z,7.20
2018-12-29T14:18:50.975Z,7.20
2018-12-29T14:21:57.054Z,7.20
2018-12-29T14:24:51.440Z,7.30
2018-12-29T14:27:38.859Z,7.30
2018-12-29T14:30:27.872Z,7.50
2018-12-29T14:33:30.985Z,7.60
2018-12-29T14:36:33.988Z,7.50
2018-12-29T14:39:18.715Z,7.40
2018-12-29T14:42:24.044Z,7.40
2018-12-29T14:45:09.494Z,7.40
2018-12-29T14:48:16.626Z,7.30
2018-12-29T14:51:02.780Z,7.20
2018-12-29T14:53:54.824Z,7.30
2018-12-29T14:56:43.823Z,7.30
2018-12-29T14:59:55.060Z,7.40
2018-12-29T15:02:44.792Z,7.40
2018-12-29T15:05:56.059Z,7.30
2018-12-29T15:09:06.013Z,7.30
2018-12-29T15:12:12.061Z,7.20
2018-12-29T15:14:58.062Z,7.20
2018-12-29T15:18:15.875Z,7.20
2018-12-29T15:21:12.026Z,7.20
2018-12-29T15:24:03.058Z,7.20
2018-12-29T15:26:59.395Z,7.30
2018-12-29T15:30:02.078Z,7.20
2018-12-29T15:33:08.960Z,7.20
2018-12-29T15:36:03.086Z,7.20
2018-12-29T15:38:53.910Z,7.20
2018-12-29T15:41:58.038Z,7.20
2018-12-29T15:45:04.747Z,7.20
2018-12-29T15:48:09.031Z,7.20
2018-12-29T15:50:58.911Z,7.10
2018-12-29T15:54:11.055Z,7.10
2018-12-29T15:57:24.051Z,7.10
2018-12-29T16:00:29.738Z,7.10
2018-12-29T16:03:43.141Z,7.10
2018-12-29T16:06:42.109Z,7.10
2018-12-29T16:09:50.954Z,7.10
2018-12-29T16:13:18.932Z,7.20
2018-12-29T16:16:55.071Z,7.20
2018-12-29T16:20:29.990Z,7.10
2018-12-29T16:23:23.559Z,7.10
2018-12-29T16:26:30.032Z,7.00
2018-12-29T16:29:42.496Z,7.00
2018-12-29T16:33:22.112Z,7.00
2018-12-29T16:40:19.432Z,7.00
2018-12-29T16:46:58.845Z,7.00
2018-12-29T16:49:58.470Z,7.00
2018-12-29T16:53:47.118Z,7.00
2018-12-29T16:56:53.156Z,7.00
2018-12-29T17:00:05.759Z,7.00
2018-12-29T17:02:57.160Z,7.00
2018-12-29T17:05:56.550Z,7.10
2018-12-29T17:08:43.491Z,7.00
2018-12-29T17:11:25.159Z,7.00
2018-12-29T17:14:11.588Z,6.90
2018-12-29T17:17:10.120Z,6.90
2018-12-29T17:20:00.887Z,6.90
2018-12-29T17:22:59.354Z,6.80
2018-12-29T17:25:48.987Z,6.80
2018-12-29T17:28:48.127Z,6.80
2018-12-29T17:31:41.958Z,6.80
2018-12-29T17:34:30.016Z,6.80
2018-12-29T17:37:18.961Z,6.80
2018-12-29T17:40:09.137Z,6.90
2018-12-29T17:42:55.658Z,6.80
2018-12-29T17:45:46.191Z,6.70
2018-12-29T17:48:38.502Z,6.70
2018-12-29T17:51:41.149Z,6.70
2018-12-29T17:54:27.173Z,6.70
2018-12-29T17:57:21.971Z,6.70
2018-12-29T18:00:11.513Z,6.80
2018-12-29T18:02:56.473Z,6.80
2018-12-29T18:05:50.656Z,6.80
2018-12-29T18:08:36.159Z,6.80
2018-12-29T18:11:19.988Z,6.80
2018-12-29T18:14:01.877Z,6.80
2018-12-29T18:16:52.733Z,6.90
2018-12-29T18:19:43.167Z,6.90
2018-12-29T18:22:31.842Z,6.80
2018-12-29T18:25:20.533Z,6.80
2018-12-29T18:28:06.075Z,6.80
2018-12-29T18:30:57.223Z,6.80
2018-12-29T18:33:50.425Z,6.70
2018-12-29T18:36:44.232Z,6.70
2018-12-29T18:39:28.722Z,6.70
2018-12-29T18:42:16.106Z,6.70
2018-12-29T18:45:03.574Z,6.70
2018-12-29T18:47:55.240Z,6.60
2018-12-29T18:50:50.203Z,6.60
2018-12-29T18:53:36.603Z,6.70
2018-12-29T18:56:19.115Z,6.70
2018-12-29T18:59:01.627Z,6.60
2018-12-29T19:01:57.577Z,6.60
2018-12-29T19:04:37.967Z,6.60
2018-12-29T19:07:31.248Z,6.60
2018-12-29T19:10:14.970Z,6.60
2018-12-29T19:12:58.716Z,6.60
2018-12-29T19:15:46.754Z,6.70
2018-12-29T19:18:32.026Z,6.70
2018-12-29T19:21:21.328Z,6.60
2018-12-29T19:24:08.223Z,6.70
2018-12-29T19:26:57.068Z,6.70
2018-12-29T19:29:45.169Z,6.60
2018-12-29T19:32:30.163Z,6.60
2018-12-29T19:35:18.124Z,6.50
2018-12-29T19:38:00.980Z,6.60
2018-12-29T19:40:51.237Z,6.50
2018-12-29T19:43:37.062Z,6.50
2018-12-29T19:46:33.050Z,6.40
2018-12-29T19:49:18.999Z,6.40
2018-12-29T19:52:04.289Z,6.40
2018-12-29T19:54:56.860Z,6.30
2018-12-29T19:57:39.294Z,6.40
2018-12-29T20:00:23.294Z,6.40
2018-12-29T20:03:08.130Z,6.40
2018-12-29T20:05:52.177Z,6.40
2018-12-29T20:08:35.612Z,6.40
2018-12-29T20:11:22.722Z,6.40
2018-12-29T20:14:07.032Z,6.40
2018-12-29T20:16:52.657Z,6.30
2018-12-29T20:19:45.263Z,6.30
2018-12-29T20:22:30.324Z,6.30
2018-12-29T20:25:12.743Z,6.30
2018-12-29T20:28:15.221Z,6.30
2018-12-29T20:30:57.730Z,6.30
2018-12-29T20:33:42.084Z,6.20
2018-12-29T20:36:24.640Z,6.30
2018-12-29T20:39:06.800Z,6.30
2018-12-29T20:41:50.326Z,6.20
2018-12-29T20:44:41.086Z,6.30
2018-12-29T20:47:37.119Z,6.30
2018-12-29T20:50:22.084Z,6.20
2018-12-29T20:53:08.893Z,6.10
2018-12-29T20:55:56.011Z,6.10
2018-12-29T20:58:42.827Z,6.10
2018-12-29T21:01:24.673Z,6.10
2018-12-29T21:04:08.723Z,6.10
2018-12-29T21:06:54.039Z,6.10
2018-12-29T21:09:37.732Z,6.20
2018-12-29T21:12:22.349Z,6.20
2018-12-29T21:15:06.134Z,6.10
2018-12-29T21:17:54.245Z,6.10
2018-12-29T21:20:41.297Z,6.10
2018-12-29T21:23:25.078Z,6.10
2018-12-29T21:26:14.041Z,6.10
2018-12-29T21:29:04.190Z,6.10
2018-12-29T21:31:45.774Z,6.00
2018-12-29T21:34:31.366Z,6.10
2018-12-29T21:37:23.135Z,6.10
2018-12-29T21:40:09.328Z,6.00
2018-12-29T21:42:57.603Z,6.00
2018-12-29T21:45:41.114Z,6.10
2018-12-29T21:48:25.170Z,6.10
2018-12-29T21:51:15.355Z,6.10
2018-12-29T21:53:58.778Z,6.00
2018-12-29T21:56:51.998Z,6.00
2018-12-29T21:59:37.388Z,5.90
2018-12-29T22:02:19.827Z,5.90
2018-12-29T22:05:03.214Z,5.80
2018-12-29T22:07:50.332Z,5.80
2018-12-29T22:10:38.681Z,5.80
2018-12-29T22:13:25.230Z,5.80
2018-12-29T22:16:13.355Z,5.80
2018-12-29T22:18:59.115Z,5.80
2018-12-29T22:21:48.737Z,5.80
2018-12-29T22:24:31.819Z,5.80
2018-12-29T22:27:20.368Z,5.80
2018-12-29T22:30:12.371Z,5.80
2018-12-29T22:32:55.984Z,5.80
2018-12-29T22:35:41.830Z,5.80
2018-12-29T22:38:23.392Z,5.80
2018-12-29T22:41:11.189Z,5.80
2018-12-29T22:43:54.276Z,5.80
2018-12-29T22:46:45.318Z,5.80
2018-12-29T22:49:37.383Z,5.80
2018-12-29T22:52:26.696Z,5.70
2018-12-29T22:55:13.206Z,5.70
2018-12-29T22:57:55.752Z,5.90
2018-12-29T23:00:47.129Z,6.00
2018-12-29T23:03:34.862Z,6.10
2018-12-29T23:06:22.402Z,6.30
2018-12-29T23:09:16.168Z,6.20
2018-12-29T23:12:03.900Z,6.20
2018-12-29T23:14:50.075Z,6.20
2018-12-29T23:17:32.924Z,6.00
2018-12-29T23:20:18.757Z,5.90
2018-12-29T23:23:01.927Z,6.10
2018-12-29T23:25:44.412Z,6.00
2018-12-29T23:28:34.938Z,5.90
2018-12-29T23:31:22.187Z,5.90
2018-12-29T23:34:06.149Z,5.80
2018-12-29T23:36:51.116Z,5.80
2018-12-29T23:39:37.268Z,5.90
2018-12-29T23:42:22.281Z,5.90
2018-12-29T23:45:03.259Z,5.80
2018-12-29T23:47:50.374Z,5.80
2018-12-29T23:50:35.253Z,5.90
2018-12-29T23:53:25.184Z,6.10
2018-12-29T23:56:17.216Z,6.20
2018-12-29T23:59:02.805Z,6.30
